Time;durP1;ratioP1;P1;durP2;ratioP2;P2;SDS_P1;SDS_P2;PMS_P1;PMS_P2;Temp;Humidity;BMP_temperature;BMP_pressure;BME280_temperature;BME280_humidity;BME280_pressure;Samples;Min_cycle;Max_cycle;Signal;HPM_P1;HPM_P2
2021/07/20 00:00:33;;;;;;;21.33;19.17;;;27.40;68.00;;;;;;1878300;76;21040;-52
2021/07/20 00:03:06;;;;;;;22.15;19.98;;;27.40;68.20;;;;;;1878098;76;21036;-50
2021/07/20 00:05:34;;;;;;;22.95;20.57;;;27.40;68.30;;;;;;1878261;76;21045;-51
2021/07/20 00:08:04;;;;;;;22.45;20.25;;;27.40;67.70;;;;;;1868265;76;21068;-51
2021/07/20 00:10:48;;;;;;;21.33;19.12;;;27.50;67.50;;;;;;1865986;77;21068;-51
2021/07/20 00:13:18;;;;;;;21.25;19.37;;;27.50;67.30;;;;;;1865836;76;21100;-49
2021/07/20 00:15:50;;;;;;;24.32;20.57;;;27.50;67.30;;;;;;1865775;77;21107;-49
2021/07/20 00:18:21;;;;;;;23.10;20.68;;;27.50;67.00;;;;;;1865714;77;21549;-49
2021/07/20 00:20:51;;;;;;;21.30;19.17;;;27.50;66.60;;;;;;1865875;77;21088;-50
2021/07/20 00:23:22;;;;;;;24.82;19.23;;;27.50;66.80;;;;;;1865679;77;21033;-52
2021/07/20 00:25:52;;;;;;;20.82;18.82;;;27.50;67.00;;;;;;1865908;77;21044;-51
2021/07/20 00:28:23;;;;;;;21.82;18.90;;;27.50;66.80;;;;;;1865742;77;21021;-50
2021/07/20 00:30:52;;;;;;;21.05;19.05;;;27.50;66.60;;;;;;1865427;77;21099;-52
2021/07/20 00:33:22;;;;;;;21.27;19.37;;;27.50;66.70;;;;;;1865713;77;21017;-52
2021/07/20 00:35:52;;;;;;;22.52;20.17;;;27.50;66.50;;;;;;1865799;77;21118;-51
2021/07/20 00:38:22;;;;;;;22.50;20.12;;;27.50;66.30;;;;;;1865878;77;21040;-48
2021/07/20 00:40:53;;;;;;;21.40;19.30;;;27.50;66.40;;;;;;1865638;77;21060;-51
2021/07/20 00:43:23;;;;;;;21.57;19.52;;;27.50;66.60;;;;;;1865703;77;21065;-50
2021/07/20 00:45:53;;;;;;;22.15;20.05;;;27.40;66.70;;;;;;1865766;77;21107;-52
2021/07/20 00:48:23;;;;;;;23.73;21.45;;;27.40;66.80;;;;;;1865728;77;21036;-51
2021/07/20 00:50:54;;;;;;;23.45;21.12;;;27.40;66.60;;;;;;1865915;77;21470;-50
2021/07/20 00:53:24;;;;;;;22.60;20.50;;;27.40;66.20;;;;;;1865881;77;21033;-52
2021/07/20 00:55:58;;;;;;;23.95;21.57;;;27.30;65.50;;;;;;1863205;77;21052;-51
2021/07/20 00:58:28;;;;;;;22.07;19.92;;;27.20;65.70;;;;;;1865758;76;21087;-52
2021/07/20 01:00:58;;;;;;;21.55;19.30;;;27.00;66.40;;;;;;1865667;77;21098;-48
2021/07/20 01:03:31;;;;;;;26.02;21.25;;;27.00;67.10;;;;;;1865755;77;21098;-49
2021/07/20 01:06:03;;;;;;;21.45;19.35;;;26.90;67.00;;;;;;1865530;77;21056;-50
2021/07/20 01:08:33;;;;;;;22.95;20.45;;;26.90;68.00;;;;;;1865789;76;21064;-50
2021/07/20 01:11:04;;;;;;;24.60;19.62;;;26.90;67.50;;;;;;1865717;77;21013;-50
2021/07/20 01:13:34;;;;;;;20.77;18.85;;;26.90;67.30;;;;;;1865693;77;21041;-49
2021/07/20 01:16:05;;;;;;;24.47;22.07;;;26.80;67.60;;;;;;1865900;77;21060;-52
2021/07/20 01:18:36;;;;;;;25.17;21.07;;;26.90;67.40;;;;;;1865689;77;21040;-49
2021/07/20 01:21:13;;;;;;;22.45;20.17;;;26.80;67.40;;;;;;1865605;77;21037;-49
2021/07/20 01:23:46;;;;;;;24.02;21.45;;;26.80;67.70;;;;;;1865716;77;21056;-51
2021/07/20 01:26:17;;;;;;;22.87;19.87;;;26.80;67.30;;;;;;1865136;77;21192;-50
2021/07/20 01:28:49;;;;;;;23.95;21.68;;;26.80;67.70;;;;;;1865774;76;21092;-50
2021/07/20 01:31:21;;;;;;;21.25;19.05;;;26.80;67.50;;;;;;1865896;77;21095;-51
2021/07/20 01:33:54;;;;;;;21.90;19.80;;;26.80;67.60;;;;;;1865145;77;21089;-49
2021/07/20 01:36:27;;;;;;;21.80;19.70;;;26.80;67.70;;;;;;1865478;77;21143;-51
2021/07/20 01:38:58;;;;;;;21.30;19.20;;;26.80;67.60;;;;;;1865815;77;21083;-51
2021/07/20 01:41:30;;;;;;;21.57;19.60;;;26.80;67.80;;;;;;1865073;77;21061;-52
2021/07/20 01:44:04;;;;;;;21.93;19.67;;;26.80;68.00;;;;;;1865823;77;21064;-52
2021/07/20 01:46:36;;;;;;;22.90;20.60;;;26.80;67.80;;;;;;1865869;77;21056;-52
2021/07/20 01:49:08;;;;;;;22.93;20.82;;;26.80;68.10;;;;;;1865780;77;21045;-51
2021/07/20 01:51:38;;;;;;;23.35;21.20;;;26.80;68.10;;;;;;1865066;76;21118;-51
2021/07/20 01:54:10;;;;;;;23.57;21.17;;;26.80;68.00;;;;;;1865845;77;21154;-51
2021/07/20 01:56:40;;;;;;;21.93;19.82;;;26.70;67.70;;;;;;1865979;77;21056;-50
2021/07/20 01:59:11;;;;;;;20.77;18.77;;;26.70;68.10;;;;;;1865904;77;21084;-52
2021/07/20 02:10:11;;;;;;;22.35;20.15;;;26.70;68.20;;;;;;1865872;77;21068;-51
2021/07/20 02:13:02;;;;;;;22.30;20.10;;;26.60;68.00;;;;;;1864347;77;21103;-51
2021/07/20 02:15:44;;;;;;;22.80;20.68;;;26.50;68.30;;;;;;1864106;77;21052;-50
2021/07/20 02:18:29;;;;;;;26.20;21.27;;;26.50;68.30;;;;;;1865009;77;21213;-51
2021/07/20 02:21:05;;;;;;;22.13;20.02;;;26.40;67.70;;;;;;1864170;77;21087;-50
2021/07/20 02:23:36;;;;;;;21.65;19.35;;;26.30;68.00;;;;;;1864100;77;21056;-50
2021/07/20 02:26:06;;;;;;;20.45;18.57;;;26.30;68.80;;;;;;1865866;77;21107;-50
2021/07/20 02:28:38;;;;;;;22.58;20.08;;;26.30;69.00;;;;;;1865841;77;21099;-51
2021/07/20 02:31:09;;;;;;;21.40;19.23;;;26.30;69.10;;;;;;1865881;77;21017;-52
2021/07/20 02:33:42;;;;;;;22.58;20.27;;;26.30;69.10;;;;;;1865851;77;21016;-51
2021/07/20 02:36:15;;;;;;;23.47;21.05;;;26.40;68.80;;;;;;1865845;76;21130;-52
2021/07/20 02:38:46;;;;;;;22.52;20.12;;;26.40;67.80;;;;;;1865800;77;21056;-51
2021/07/20 02:41:18;;;;;;;21.95;18.67;;;26.30;68.10;;;;;;1865043;77;21037;-49
2021/07/20 02:43:49;;;;;;;21.73;19.07;;;26.20;68.50;;;;;;1865654;77;21045;-49
2021/07/20 02:46:19;;;;;;;20.75;18.67;;;26.30;68.80;;;;;;1865993;77;21098;-50
2021/07/20 02:48:52;;;;;;;21.85;19.55;;;26.30;68.80;;;;;;1866026;77;21479;-51
2021/07/20 02:51:23;;;;;;;33.00;19.55;;;26.40;68.20;;;;;;1865893;77;21036;-53
2021/07/20 02:53:55;;;;;;;36.83;19.90;;;26.50;67.70;;;;;;1865695;77;21037;-50
2021/07/20 02:56:25;;;;;;;21.15;18.85;;;26.50;68.10;;;;;;1865811;77;21052;-51
2021/07/20 02:59:00;;;;;;;24.98;22.35;;;26.50;68.10;;;;;;1865358;77;21103;-51
2021/07/20 03:01:33;;;;;;;20.55;18.45;;;26.50;67.90;;;;;;1863758;77;21575;-51
2021/07/20 03:04:02;;;;;;;21.25;18.80;;;26.50;67.70;;;;;;1865702;77;21041;-51
2021/07/20 03:06:34;;;;;;;21.42;19.32;;;26.50;67.70;;;;;;1865834;76;21038;-50
2021/07/20 03:09:04;;;;;;;21.12;19.12;;;26.40;67.60;;;;;;1865696;76;21123;-49
2021/07/20 03:11:43;;;;;;;20.05;18.25;;;26.40;67.50;;;;;;1865679;77;21091;-51
2021/07/20 03:14:16;;;;;;;19.62;17.77;;;26.30;68.10;;;;;;1865867;77;21118;-51
2021/07/20 03:16:48;;;;;;;20.55;18.50;;;26.30;68.60;;;;;;1864459;77;21135;-51
2021/07/20 03:19:19;;;;;;;20.65;18.62;;;26.40;68.80;;;;;;1865845;77;21128;-50
2021/07/20 03:21:52;;;;;;;20.27;18.12;;;26.50;68.80;;;;;;1865834;77;21049;-52
2021/07/20 03:24:24;;;;;;;20.72;18.45;;;26.60;68.30;;;;;;1865584;77;21126;-51
2021/07/20 03:26:56;;;;;;;20.97;18.70;;;26.70;67.80;;;;;;1865679;77;21122;-50
2021/07/20 03:29:25;;;;;;;19.37;17.48;;;26.70;67.60;;;;;;1865873;77;21036;-50
2021/07/20 03:31:56;;;;;;;21.07;18.95;;;26.70;67.40;;;;;;1865789;77;21065;-51
2021/07/20 03:34:26;;;;;;;21.97;19.82;;;26.70;67.40;;;;;;1865781;77;21045;-49
2021/07/20 03:36:56;;;;;;;19.23;17.23;;;26.80;67.40;;;;;;1865761;77;21165;-48
2021/07/20 03:39:26;;;;;;;19.73;17.62;;;26.90;68.10;;;;;;1865729;77;21110;-50
2021/07/20 03:41:56;;;;;;;21.27;18.50;;;26.90;67.40;;;;;;1865826;77;21111;-51
2021/07/20 03:44:29;;;;;;;20.60;17.50;;;27.00;67.30;;;;;;1865819;77;21087;-52
2021/07/20 03:47:00;;;;;;;20.35;17.57;;;27.10;67.40;;;;;;1865951;77;21215;-51
2021/07/20 03:49:30;;;;;;;52.30;32.70;;;27.20;67.40;;;;;;1865742;77;21045;-51
2021/07/20 03:52:02;;;;;;;250.50;133.82;;;27.30;67.20;;;;;;1865831;77;21127;-51
2021/07/20 03:54:35;;;;;;;115.03;74.12;;;27.40;67.00;;;;;;1865720;77;21115;-52
2021/07/20 03:57:05;;;;;;;53.60;41.88;;;27.50;66.90;;;;;;1865743;77;21013;-50
2021/07/20 03:59:38;;;;;;;37.60;25.40;;;27.60;66.90;;;;;;1865029;77;21060;-51
2021/07/20 04:02:11;;;;;;;23.02;20.57;;;27.70;66.60;;;;;;1861964;77;21044;-49
2021/07/20 04:04:43;;;;;;;22.62;18.52;;;27.80;66.60;;;;;;1865920;77;21044;-51
2021/07/20 04:07:19;;;;;;;22.50;19.95;;;27.90;66.50;;;;;;1865985;76;21041;-52
2021/07/20 04:09:54;;;;;;;22.67;20.37;;;28.00;66.50;;;;;;1861856;76;21075;-50
2021/07/20 04:12:31;;;;;;;23.77;21.15;;;28.10;66.40;;;;;;1860544;77;21453;-51
2021/07/20 04:15:03;;;;;;;26.33;20.52;;;28.40;66.20;;;;;;1864513;77;21025;-51
2021/07/20 04:17:36;;;;;;;24.87;20.15;;;28.60;66.00;;;;;;1865305;77;21109;-52
2021/07/20 04:20:07;;;;;;;25.12;22.00;;;28.80;65.80;;;;;;1865813;77;21008;-51
2021/07/20 04:22:38;;;;;;;28.35;22.22;;;28.90;65.30;;;;;;1865367;77;21068;-48
2021/07/20 04:25:09;;;;;;;23.75;21.23;;;29.10;65.00;;;;;;1865886;77;21051;-51
2021/07/20 04:27:41;;;;;;;22.50;20.15;;;29.20;64.90;;;;;;1865482;77;21068;-50
2021/07/20 04:30:11;;;;;;;26.62;20.52;;;29.30;64.80;;;;;;1865721;77;21029;-51
2021/07/20 04:32:49;;;;;;;19.92;17.75;;;29.40;64.70;;;;;;1865864;76;21096;-50
2021/07/20 04:35:21;;;;;;;20.90;16.77;;;29.60;64.40;;;;;;1865745;77;21064;-52
2021/07/20 04:37:53;;;;;;;18.77;17.00;;;29.80;64.20;;;;;;1865011;76;21091;-51
2021/07/20 04:40:22;;;;;;;19.42;17.32;;;29.90;63.80;;;;;;1866010;77;21103;-51
2021/07/20 04:42:54;;;;;;;23.75;17.05;;;30.00;63.60;;;;;;1865504;77;21036;-51
2021/07/20 04:45:25;;;;;;;21.42;18.30;;;30.20;63.60;;;;;;1865723;77;21102;-51
2021/07/20 04:47:59;;;;;;;22.20;16.87;;;30.30;63.30;;;;;;1863630;77;21048;-52
2021/07/20 04:50:32;;;;;;;35.23;19.12;;;30.40;63.00;;;;;;1863841;77;21106;-52
2021/07/20 04:53:07;;;;;;;26.05;16.12;;;30.50;63.00;;;;;;1842282;77;21072;-53
2021/07/20 04:55:38;;;;;;;27.37;17.00;;;30.60;62.90;;;;;;1865714;77;21040;-51
2021/07/20 04:58:08;;;;;;;27.05;17.37;;;30.70;63.10;;;;;;1865795;77;21052;-51
2021/07/20 05:00:39;;;;;;;43.23;18.42;;;30.80;63.70;;;;;;1865766;77;21144;-51
2021/07/20 05:03:10;;;;;;;29.67;17.60;;;30.90;62.70;;;;;;1865589;77;21090;-51
2021/07/20 05:05:41;;;;;;;22.85;16.35;;;31.00;62.20;;;;;;1865768;77;21045;-52
2021/07/20 05:08:16;;;;;;;23.02;16.60;;;31.00;62.10;;;;;;1865345;77;21111;-52
2021/07/20 05:10:50;;;;;;;18.45;15.78;;;31.10;62.10;;;;;;1874390;76;21502;-51
2021/07/20 05:13:25;;;;;;;19.87;16.23;;;31.20;62.00;;;;;;1877666;76;21088;-50
2021/07/20 05:15:56;;;;;;;18.67;16.52;;;31.20;62.10;;;;;;1878211;76;21008;-51
2021/07/20 05:18:27;;;;;;;20.10;15.65;;;31.30;62.00;;;;;;1878230;76;21044;-51
2021/07/20 05:20:58;;;;;;;17.92;16.10;;;31.30;61.90;;;;;;1878326;76;21102;-52
2021/07/20 05:23:30;;;;;;;18.02;14.93;;;31.40;61.90;;;;;;1877806;76;21048;-51
2021/07/20 05:26:01;;;;;;;22.27;14.68;;;31.40;61.60;;;;;;1878010;76;21059;-52
2021/07/20 05:28:32;;;;;;;18.32;14.43;;;31.50;61.40;;;;;;1878212;76;21115;-51
2021/07/20 05:31:03;;;;;;;17.32;15.00;;;31.60;61.40;;;;;;1878296;76;21091;-52
2021/07/20 05:33:34;;;;;;;25.48;14.80;;;31.70;61.40;;;;;;1878234;76;21040;-51
2021/07/20 05:36:05;;;;;;;25.62;15.43;;;31.80;61.00;;;;;;1877513;76;21020;-51
2021/07/20 05:38:35;;;;;;;22.67;17.20;;;31.90;60.90;;;;;;1878236;76;21118;-52
2021/07/20 05:41:23;;;;;;;21.07;16.20;;;32.00;60.50;;;;;;1878203;76;21118;-51
2021/07/20 05:43:55;;;;;;;19.25;15.03;;;32.10;60.20;;;;;;1878331;76;21110;-51
2021/07/20 05:46:26;;;;;;;24.60;15.18;;;32.20;60.60;;;;;;1878210;76;21483;-51
2021/07/20 05:48:58;;;;;;;17.17;14.85;;;32.30;59.70;;;;;;1878202;76;21039;-51
2021/07/20 05:51:30;;;;;;;26.05;14.78;;;32.40;59.40;;;;;;1877995;76;21109;-52
2021/07/20 05:54:02;;;;;;;19.98;14.85;;;32.50;59.20;;;;;;1876683;76;21067;-51
2021/07/20 05:56:51;;;;;;;14.55;11.73;;;32.50;58.70;;;;;;1878183;76;21056;-51
2021/07/20 05:59:34;;;;;;;19.15;11.40;;;32.60;58.00;;;;;;1876840;76;21084;-52
2021/07/20 06:02:07;;;;;;;15.68;10.58;;;32.70;57.60;;;;;;1877797;76;21149;-51
2021/07/20 06:04:38;;;;;;;21.07;11.45;;;32.70;57.30;;;;;;1878326;76;21080;-52
2021/07/20 06:07:09;;;;;;;11.03;10.00;;;32.80;57.10;;;;;;1878244;76;21106;-52
2021/07/20 06:09:39;;;;;;;13.13;10.58;;;32.80;56.90;;;;;;1878266;76;21098;-51
2021/07/20 06:12:09;;;;;;;12.18;10.93;;;32.80;56.50;;;;;;1878189;76;21103;-51
2021/07/20 06:14:39;;;;;;;15.18;10.65;;;32.80;56.60;;;;;;1878278;76;21017;-51
2021/07/20 06:17:09;;;;;;;16.07;10.63;;;32.90;56.30;;;;;;1878319;76;21044;-51
2021/07/20 06:19:39;;;;;;;14.35;10.15;;;33.00;56.40;;;;;;1878337;76;21051;-51
2021/07/20 06:22:10;;;;;;;15.85;11.22;;;33.10;56.00;;;;;;1878261;76;21048;-48
2021/07/20 06:24:54;;;;;;;14.75;12.10;;;33.20;55.90;;;;;;1877309;76;21112;-50
2021/07/20 06:27:25;;;;;;;14.53;11.48;;;33.20;55.90;;;;;;1878217;76;21045;-49
2021/07/20 06:30:00;;;;;;;10.10;9.20;;;33.30;55.80;;;;;;1878075;76;21378;-50
2021/07/20 06:32:31;;;;;;;10.65;9.55;;;33.40;55.70;;;;;;1924256;74;21028;-49
2021/07/20 06:35:01;;;;;;;13.70;10.23;;;33.50;55.40;;;;;;1924394;74;21152;-51
2021/07/20 06:37:30;;;;;;;10.98;9.58;;;33.50;55.20;;;;;;1924239;74;21023;-51
2021/07/20 06:40:00;;;;;;;11.10;9.93;;;33.60;55.00;;;;;;1924226;74;21098;-51
2021/07/20 06:42:30;;;;;;;12.80;9.50;;;33.70;54.70;;;;;;1924360;74;21089;-52
2021/07/20 06:45:00;;;;;;;21.10;9.38;;;33.80;54.30;;;;;;1924257;74;21008;-50
2021/07/20 06:47:32;;;;;;;12.90;10.10;;;33.90;53.80;;;;;;1924256;74;21027;-51
2021/07/20 06:50:04;;;;;;;12.23;9.25;;;33.90;53.50;;;;;;1924308;74;21043;-50
2021/07/20 06:52:32;;;;;;;13.83;10.08;;;33.90;53.20;;;;;;1924219;74;21611;-50
2021/07/20 06:55:03;;;;;;;14.53;10.00;;;34.00;53.10;;;;;;1924213;74;21067;-51
2021/07/20 06:57:35;;;;;;;11.60;9.20;;;34.00;52.90;;;;;;1924318;74;21104;-51
2021/07/20 07:00:06;;;;;;;19.48;12.75;;;34.10;52.70;;;;;;1924265;74;21036;-52
2021/07/20 07:02:38;;;;;;;12.40;8.95;;;34.10;52.50;;;;;;1924265;74;21102;-50
2021/07/20 07:05:14;;;;;;;12.28;8.95;;;34.20;51.60;;;;;;1924256;74;21023;-51
2021/07/20 07:07:45;;;;;;;10.10;9.10;;;34.20;51.40;;;;;;1924233;74;21051;-50
2021/07/20 07:10:17;;;;;;;9.28;8.45;;;34.30;51.20;;;;;;1924037;74;21469;-52
2021/07/20 07:12:51;;;;;;;11.78;9.35;;;34.40;50.60;;;;;;1914697;75;21091;-49
2021/07/20 07:15:21;;;;;;;10.18;8.40;;;34.50;50.50;;;;;;1914621;75;21078;-50
2021/07/20 07:17:52;;;;;;;11.15;8.85;;;34.60;49.80;;;;;;1914661;75;21028;-51
2021/07/20 07:20:25;;;;;;;12.03;8.18;;;34.60;49.20;;;;;;1914561;75;21032;-49
2021/07/20 07:22:55;;;;;;;14.10;8.73;;;34.70;48.70;;;;;;1914906;75;21039;-51
2021/07/20 07:25:25;;;;;;;14.28;9.15;;;34.70;48.00;;;;;;1914582;75;22194;-51
2021/07/20 07:27:56;;;;;;;13.05;10.13;;;34.80;47.70;;;;;;1914552;75;21079;-51
2021/07/20 07:30:26;;;;;;;18.02;10.13;;;34.90;47.50;;;;;;1914613;75;21028;-50
2021/07/20 07:32:57;;;;;;;10.20;8.75;;;35.00;47.60;;;;;;1912989;75;21040;-49
2021/07/20 07:35:28;;;;;;;13.98;8.18;;;35.00;46.20;;;;;;1914166;75;21087;-51
2021/07/20 07:38:00;;;;;;;12.05;8.13;;;35.10;45.10;;;;;;1914008;74;21087;-53
2021/07/20 07:40:30;;;;;;;9.85;7.15;;;35.20;44.40;;;;;;1914012;75;21044;-52
2021/07/20 07:43:01;;;;;;;9.48;7.08;;;35.30;43.80;;;;;;1914137;75;21079;-51
2021/07/20 07:45:31;;;;;;;15.88;7.72;;;35.30;44.00;;;;;;1914127;75;21087;-55
2021/07/20 07:48:02;;;;;;;19.15;10.45;;;35.40;43.20;;;;;;1914053;75;21033;-53
2021/07/20 07:50:31;;;;;;;10.03;8.13;;;35.40;43.20;;;;;;1914106;75;21028;-51
2021/07/20 07:53:02;;;;;;;10.25;7.70;;;35.50;43.20;;;;;;1913819;75;21036;-51
2021/07/20 07:55:31;;;;;;;10.48;8.15;;;35.50;43.20;;;;;;1913903;75;21095;-55
2021/07/20 07:58:01;;;;;;;43.15;38.50;;;35.60;43.60;;;;;;1913569;75;21108;-51
2021/07/20 08:00:34;;;;;;;14.60;7.83;;;35.60;44.10;;;;;;1913432;75;21181;-53
2021/07/20 08:03:04;;;;;;;8.65;7.25;;;35.70;44.60;;;;;;1915235;74;21262;-51
2021/07/20 08:05:34;;;;;;;14.03;8.03;;;35.80;44.00;;;;;;1915140;75;21099;-53
2021/07/20 08:08:06;;;;;;;10.95;6.78;;;35.80;43.80;;;;;;1913702;75;21104;-55
2021/07/20 08:10:35;;;;;;;9.00;6.97;;;35.80;41.40;;;;;;1914065;75;21008;-55
2021/07/20 08:13:06;;;;;;;9.20;7.20;;;35.80;40.50;;;;;;1882896;74;21065;-53
2021/07/20 08:15:36;;;;;;;11.97;7.25;;;35.90;41.00;;;;;;1880989;75;21523;-50
2021/07/20 08:18:06;;;;;;;13.20;8.43;;;35.90;41.60;;;;;;1825768;78;21099;-55
2021/07/20 08:20:36;;;;;;;12.85;7.53;;;36.00;41.20;;;;;;1825760;78;21048;-56
2021/07/20 08:23:05;;;;;;;9.53;7.50;;;36.00;41.70;;;;;;1825589;78;21048;-55
2021/07/20 08:25:40;;;;;;;8.68;7.55;;;36.10;41.90;;;;;;1825734;78;21047;-54
2021/07/20 08:28:12;;;;;;;8.98;7.67;;;36.10;41.60;;;;;;1825828;78;21584;-55
2021/07/20 08:30:43;;;;;;;12.00;8.08;;;36.20;41.80;;;;;;1825561;78;21044;-55
2021/07/20 08:33:15;;;;;;;18.70;16.70;;;36.20;42.00;;;;;;1825649;77;21644;-55
2021/07/20 08:35:45;;;;;;;15.95;8.68;;;36.30;42.10;;;;;;1825625;77;21576;-56
2021/07/20 08:38:16;;;;;;;7.78;7.05;;;36.30;42.30;;;;;;1825734;77;21020;-52
2021/07/20 08:40:56;;;;;;;8.03;7.22;;;36.40;42.70;;;;;;1815163;78;21148;-53
2021/07/20 08:43:45;;;;;;;9.05;7.40;;;36.50;42.80;;;;;;1888987;76;21092;-55
2021/07/20 08:46:32;;;;;;;11.73;8.20;;;36.60;42.70;;;;;;1890552;76;21041;-55
2021/07/20 08:49:27;;;;;;;15.85;8.00;;;36.60;42.90;;;;;;1890507;76;21083;-53
2021/07/20 08:52:08;;;;;;;12.95;7.65;;;36.70;42.70;;;;;;1861253;76;21080;-54
2021/07/20 08:54:55;;;;;;;9.65;7.72;;;36.80;42.80;;;;;;1816759;79;21102;-53
2021/07/20 08:57:36;;;;;;;10.45;7.40;;;36.80;42.50;;;;;;1890634;76;21081;-54
2021/07/20 09:00:23;;;;;;;11.25;7.83;;;36.90;42.00;;;;;;1886789;76;21048;-57
2021/07/20 09:03:22;;;;;;;12.90;7.85;;;36.90;42.10;;;;;;1890710;76;21565;-55
2021/07/20 09:06:06;;;;;;;14.18;7.72;;;36.90;42.10;;;;;;1874947;76;21045;-55
2021/07/20 09:08:44;;;;;;;11.15;8.23;;;37.00;42.00;;;;;;1890164;75;21083;-54
2021/07/20 09:11:16;;;;;;;8.73;6.92;;;37.00;41.60;;;;;;1912972;74;21101;-53
2021/07/20 09:13:48;;;;;;;9.10;7.20;;;37.00;41.50;;;;;;1920367;75;21070;-54
2021/07/20 09:16:34;;;;;;;11.00;7.87;;;37.00;41.20;;;;;;1921392;75;21554;-54
2021/07/20 09:19:18;;;;;;;9.53;6.70;;;37.10;41.20;;;;;;1921661;75;21080;-54
2021/07/20 09:21:50;;;;;;;7.78;6.83;;;37.10;40.70;;;;;;1920674;75;22111;-52
2021/07/20 09:24:34;;;;;;;13.95;7.53;;;37.20;40.70;;;;;;1921631;75;21542;-55
2021/07/20 09:27:09;;;;;;;9.53;8.48;;;37.20;40.90;;;;;;1921614;75;21050;-55
2021/07/20 09:29:40;;;;;;;7.92;7.03;;;37.20;40.80;;;;;;1921189;75;21089;-55
2021/07/20 09:32:21;;;;;;;11.00;7.50;;;37.20;41.20;;;;;;1921761;75;21026;-52
2021/07/20 09:34:53;;;;;;;13.32;7.50;;;37.30;41.40;;;;;;1921885;75;21054;-55
2021/07/20 09:37:25;;;;;;;9.20;7.97;;;37.40;41.00;;;;;;1920629;75;21147;-54
2021/07/20 09:40:14;;;;;;;8.95;7.90;;;37.40;40.70;;;;;;1890399;75;21022;-51
2021/07/20 09:43:07;;;;;;;8.35;7.55;;;37.40;40.50;;;;;;1890273;75;21557;-54
2021/07/20 09:45:42;;;;;;;15.00;11.55;;;37.50;41.10;;;;;;1888417;75;21076;-55
2021/07/20 09:48:23;;;;;;;10.78;9.15;;;37.50;41.20;;;;;;1890559;74;21494;-53
2021/07/20 09:50:58;;;;;;;12.10;8.73;;;37.40;41.80;;;;;;1890510;76;21032;-51
2021/07/20 09:53:57;;;;;;;13.60;7.80;;;37.40;41.90;;;;;;1843066;75;21161;-53
2021/07/20 09:56:44;;;;;;;12.43;7.95;;;37.50;42.00;;;;;;1889262;75;21218;-54
2021/07/20 09:59:50;;;;;;;9.10;8.03;;;37.50;42.30;;;;;;1889202;74;21064;-52
2021/07/20 10:02:28;;;;;;;12.10;8.88;;;37.50;42.40;;;;;;1890495;74;21040;-52
2021/07/20 10:05:00;;;;;;;15.18;9.03;;;37.60;41.60;;;;;;1890778;75;21451;-52
2021/07/20 10:07:38;;;;;;;9.18;8.15;;;37.60;41.40;;;;;;1883473;75;21494;-54
2021/07/20 10:10:13;;;;;;;11.38;8.55;;;37.60;41.70;;;;;;1890682;75;21084;-53
2021/07/20 10:13:02;;;;;;;10.58;8.50;;;37.70;41.50;;;;;;1899672;74;21518;-53
2021/07/20 10:15:40;;;;;;;10.03;7.92;;;37.70;41.00;;;;;;1914068;75;21024;-51
2021/07/20 10:18:24;;;;;;;11.75;8.50;;;37.70;40.10;;;;;;1895423;75;21032;-52
2021/07/20 10:20:55;;;;;;;17.05;10.48;;;37.70;40.00;;;;;;1913738;74;21129;-53
2021/07/20 10:23:27;;;;;;;9.43;8.40;;;37.80;40.10;;;;;;1913773;74;21706;-54
2021/07/20 10:26:05;;;;;;;12.65;8.40;;;37.90;40.60;;;;;;1913438;75;21486;-53
2021/07/20 10:28:37;;;;;;;18.10;10.80;;;37.90;41.50;;;;;;1913489;75;21102;-54
2021/07/20 10:31:15;;;;;;;11.25;8.65;;;38.00;43.00;;;;;;1900953;74;21055;-51
2021/07/20 10:33:53;;;;;;;20.72;9.15;;;38.00;43.40;;;;;;1913824;74;22158;-54
2021/07/20 10:36:24;;;;;;;15.30;9.28;;;38.00;43.50;;;;;;1911336;74;21502;-52
2021/07/20 10:39:05;;;;;;;10.63;9.08;;;38.00;43.50;;;;;;1913926;75;21068;-51
2021/07/20 10:42:10;;;;;;;10.50;8.38;;;38.00;43.00;;;;;;1913813;75;21094;-52
2021/07/20 10:44:59;;;;;;;10.13;8.20;;;38.00;43.20;;;;;;1836053;77;21138;-52
2021/07/20 10:47:34;;;;;;;12.88;8.40;;;38.00;43.00;;;;;;1836048;77;21637;-54
2021/07/20 10:50:06;;;;;;;13.88;8.63;;;38.00;43.00;;;;;;1872876;75;21091;-55
2021/07/20 10:52:50;;;;;;;17.77;9.83;;;38.10;43.10;;;;;;1913924;75;22027;-50
2021/07/20 10:55:34;;;;;;;13.50;8.85;;;38.10;42.50;;;;;;1913722;75;21137;-51
2021/07/20 10:58:32;;;;;;;14.78;8.95;;;38.20;42.40;;;;;;1890559;75;21722;-52
2021/07/20 11:01:17;;;;;;;9.48;7.95;;;38.20;42.30;;;;;;1913850;75;21052;-51
2021/07/20 11:04:08;;;;;;;13.68;9.03;;;38.30;42.60;;;;;;1912688;75;21075;-51
2021/07/20 11:06:40;;;;;;;11.33;8.48;;;38.40;42.00;;;;;;1913773;75;21032;-53
2021/07/20 11:09:12;;;;;;;10.18;8.48;;;38.50;41.90;;;;;;1913865;74;21130;-54
2021/07/20 11:11:44;;;;;;;11.97;8.88;;;38.50;40.20;;;;;;1913274;74;21118;-55
2021/07/20 11:14:15;;;;;;;15.95;9.50;;;38.50;39.20;;;;;;1914065;74;21111;-55
2021/07/20 11:16:45;;;;;;;13.15;8.68;;;38.40;38.40;;;;;;1914005;75;21055;-53
2021/07/20 11:19:15;;;;;;;17.25;8.73;;;38.40;38.30;;;;;;1913966;75;21044;-53
2021/07/20 11:21:45;;;;;;;14.63;8.15;;;38.50;37.70;;;;;;1913305;75;21149;-54
2021/07/20 11:24:18;;;;;;;11.08;9.05;;;38.40;37.60;;;;;;1913437;75;21106;-52
2021/07/20 11:26:47;;;;;;;15.68;9.18;;;38.40;37.00;;;;;;1913696;74;21091;-53
2021/07/20 11:29:17;;;;;;;11.00;9.03;;;38.40;38.10;;;;;;1913999;75;21133;-54
2021/07/20 11:31:52;;;;;;;12.85;9.35;;;38.30;37.50;;;;;;1913970;75;21152;-53
2021/07/20 11:34:25;;;;;;;15.35;9.53;;;38.40;37.80;;;;;;1914164;75;21431;-51
2021/07/20 11:36:57;;;;;;;13.05;8.98;;;38.40;37.90;;;;;;1914645;75;21044;-52
2021/07/20 11:39:28;;;;;;;13.40;9.18;;;38.30;37.90;;;;;;1914719;74;21110;-50
2021/07/20 11:42:07;;;;;;;11.48;9.03;;;38.30;37.60;;;;;;1914595;75;21028;-51
2021/07/20 11:44:48;;;;;;;16.37;9.25;;;38.40;37.50;;;;;;1914602;75;21047;-52
2021/07/20 11:47:34;;;;;;;15.53;9.18;;;38.40;37.60;;;;;;1914404;74;21196;-51
2021/07/20 11:50:12;;;;;;;13.78;8.60;;;38.30;37.10;;;;;;1914608;74;21610;-51
2021/07/20 11:53:03;;;;;;;11.88;7.78;;;38.20;36.80;;;;;;1914657;74;21024;-51
2021/07/20 11:55:53;;;;;;;9.45;8.53;;;38.10;37.10;;;;;;1914630;75;21114;-51
2021/07/20 11:58:37;;;;;;;12.35;8.33;;;38.10;37.10;;;;;;1914764;75;21036;-51
2021/07/20 12:01:35;;;;;;;14.18;8.15;;;38.10;37.10;;;;;;1914802;75;21020;-52
2021/07/20 12:04:07;;;;;;;10.70;8.20;;;38.20;36.30;;;;;;1914768;75;21043;-52
2021/07/20 12:06:42;;;;;;;16.12;8.45;;;38.20;36.50;;;;;;1914617;75;21036;-52
2021/07/20 12:09:33;;;;;;;9.33;7.53;;;38.30;36.10;;;;;;1911987;75;21494;-50
2021/07/20 12:12:04;;;;;;;13.18;8.70;;;38.20;35.30;;;;;;1914720;75;21390;-51
2021/07/20 12:14:35;;;;;;;9.80;7.92;;;38.20;36.20;;;;;;1921869;74;21108;-51
2021/07/20 12:17:05;;;;;;;9.95;8.23;;;38.30;35.80;;;;;;1924117;74;21611;-51
2021/07/20 12:19:36;;;;;;;9.68;7.53;;;38.30;35.70;;;;;;1924218;74;21000;-51
2021/07/20 12:22:11;;;;;;;22.15;17.52;;;38.40;35.60;;;;;;1924164;74;21019;-52
2021/07/20 12:24:40;;;;;;;8.53;7.70;;;38.40;35.10;;;;;;1845099;77;21018;-51
2021/07/20 12:27:10;;;;;;;10.88;7.58;;;38.40;35.00;;;;;;1924188;74;21004;-51
2021/07/20 12:29:43;;;;;;;12.13;7.47;;;38.40;35.40;;;;;;1924261;74;21028;-51
2021/07/20 12:32:16;;;;;;;12.70;8.95;;;38.50;35.40;;;;;;1846869;78;21101;-51
2021/07/20 12:34:50;;;;;;;7.87;6.90;;;38.60;35.40;;;;;;1924398;74;21078;-52
2021/07/20 12:37:22;;;;;;;10.18;7.20;;;38.60;34.00;;;;;;1923889;74;21458;-51
2021/07/20 12:39:53;;;;;;;10.40;7.20;;;38.60;34.10;;;;;;1924253;74;21006;-51
2021/07/20 12:42:23;;;;;;;9.68;7.37;;;38.50;34.50;;;;;;1884675;76;21441;-51
2021/07/20 12:45:10;;;;;;;12.20;8.40;;;38.50;34.90;;;;;;1884570;76;21032;-52
2021/07/20 12:47:47;;;;;;;11.85;9.75;;;38.60;35.70;;;;;;1878223;76;21511;-52
2021/07/20 12:50:18;;;;;;;11.88;9.15;;;38.70;38.80;;;;;;1878167;76;21036;-52
2021/07/20 12:52:49;;;;;;;15.43;9.68;;;38.70;39.70;;;;;;1878191;76;21036;-50
2021/07/20 12:55:20;;;;;;;11.57;9.35;;;38.80;40.40;;;;;;1878107;76;21040;-51
2021/07/20 12:58:00;;;;;;;12.30;8.80;;;38.70;40.70;;;;;;1878169;76;21032;-51
2021/07/20 13:00:31;;;;;;;18.57;8.90;;;38.70;41.00;;;;;;1878172;76;21052;-51
2021/07/20 13:03:02;;;;;;;18.25;11.63;;;38.80;41.10;;;;;;1878232;76;21040;-52
2021/07/20 13:05:32;;;;;;;10.63;8.10;;;38.80;38.20;;;;;;1878256;76;21154;-53
2021/07/20 13:08:02;;;;;;;14.85;7.47;;;38.70;37.00;;;;;;1878206;76;21028;-50
2021/07/20 13:10:33;;;;;;;15.40;8.25;;;38.70;36.50;;;;;;1878205;76;21040;-52
2021/07/20 13:13:07;;;;;;;16.67;7.53;;;38.70;36.30;;;;;;1878275;76;21052;-50
2021/07/20 13:15:36;;;;;;;12.85;8.80;;;38.70;36.30;;;;;;1886666;76;21082;-51